• Join FlightAware (Why Join?)
  • Login
  • US Flag 
12:21AM EDT


 

Airport Tracker/Info


-or-


 

Live Flight TrackerFlight Track Log ✈ FIN666 ✈ 15-Oct-2013 ✈ EKCH / CPH - EFHK / HEL

Flight Track Log - Related Links

Times and Time Zones

All times are in EDT time to prevent confusion due to time zone crossing. See the FIN666 flight status page for this flight to view local times or setup timezone preferences in your user account.

Time Position Orientation Groundspeed Altitude Reporting Facility
EDT Latitude Longitude Course Direction KTS MPH feet Rate Location/Type
07:28AM 55.8420 13.1192 49° Northeast  Level Estimated
07:29AM 55.9164 13.2747 50° Northeast  Level Estimated
07:30AM 55.9905 13.4309 50° Northeast  Level Estimated
07:31AM 56.0586 13.5753 50° Northeast  Level Estimated
07:32AM 56.1265 13.7202 50° Northeast  Level Estimated
07:33AM 56.1943 13.8656 50° Northeast  Level Estimated
07:34AM 56.2618 14.0115 50° Northeast  Level Estimated
07:35AM 56.3293 14.1579 50° Northeast  Level Estimated
07:36AM 56.3965 14.3049 50° Northeast  Level Estimated
07:37AM 56.4636 14.4524 51° Northeast  Level Estimated
07:38AM 56.5304 14.6004 51° Northeast  Level Estimated
07:39AM 56.5972 14.7489 51° Northeast  Level Estimated
07:40AM 56.6637 14.8979 51° Northeast  Level Estimated
07:41AM 56.7301 15.0475 51° Northeast  Level Estimated
07:42AM 56.7962 15.1975 51° Northeast  Level Estimated
07:43AM 56.8622 15.3482 51° Northeast  Level Estimated
07:44AM 56.9281 15.4993 51° Northeast  Level Estimated
07:45AM 56.9937 15.6510 52° Northeast  Level Estimated
07:46AM 57.0591 15.8032 52° Northeast  Level Estimated
07:47AM 57.1244 15.9560 52° Northeast  Level Estimated
07:48AM 57.1895 16.1093 52° Northeast  Level Estimated
07:49AM 57.2544 16.2631 52° Northeast  Level Estimated
07:50AM 57.3236 16.4284 52° Northeast  Level Estimated
07:51AM 57.3926 16.5943 52° Northeast  Level Estimated
07:52AM 57.4614 16.7608 52° Northeast  Level Estimated
07:53AM 57.5300 16.9280 53° Northeast  Level Estimated
07:54AM 57.5984 17.0957 53° Northeast  Level Estimated
07:55AM 57.6666 17.2642 53° Northeast  Level Estimated
07:56AM 57.7345 17.4332 53° Northeast  Level Estimated
07:57AM 57.8022 17.6029 53° Northeast  Level Estimated
07:58AM 57.8697 17.7732 53° Northeast  Level Estimated
07:59AM 57.9369 17.9441 53° Northeast  Level Estimated
08:00AM 58.0039 18.1157 54° Northeast  Level Estimated
08:01AM 58.0707 18.2879 54° Northeast  Level Estimated
08:02AM 58.1372 18.4608 54° Northeast  Level Estimated
08:03AM 58.2035 18.6343 54° Northeast  Level Estimated
08:04AM 58.2696 18.8085 54° Northeast  Level Estimated
08:05AM 58.3354 18.9833 54° Northeast  Level Estimated
08:06AM 58.4011 19.1588 54° Northeast  Level Estimated
08:07AM 58.4664 19.3349 55° Northeast  Level Estimated
08:08AM 58.5315 19.5117 55° Northeast  Level Estimated
08:09AM 58.5964 19.6891 55° Northeast  Level Estimated
08:10AM 58.6610 19.8673 55° Northeast  Level Estimated
08:11AM 58.7254 20.0460 55° Northeast  Level Estimated
08:12AM 58.7895 20.2254 55° Northeast  Level Estimated
08:13AM 58.8534 20.4055 56° Northeast  Level Estimated
08:14AM 58.9170 20.5863 56° Northeast  Level Estimated
08:15AM 58.9804 20.7677 56° Northeast  Level Estimated
08:16AM 59.0435 20.9497 56° Northeast  Level Estimated
08:17AM 59.1064 21.1325 56° Northeast  Level Estimated
08:18AM 59.1690 21.3159 56° Northeast  Level Estimated
08:19AM 59.2305 21.4974 56° Northeast  Level Estimated
08:20AM 59.2917 21.6796 57° Northeast  Level Estimated
08:21AM 59.3527 21.8625 57° Northeast  Level Estimated
08:22AM 59.4134 22.0459 57° Northeast  Level Estimated
08:23AM 59.4739 22.2301 57° Northeast  Level Estimated
08:24AM 59.5341 22.4149 57° Northeast  Level Estimated
08:25AM 59.5940 22.6004 57° Northeast  Level Estimated
08:26AM 59.6537 22.7865 58° Northeast  Level Estimated
08:27AM 59.7131 22.9733 58° Northeast  Level Estimated
08:28AM 59.7723 23.1607 58° Northeast  Level Estimated
08:29AM 59.8311 23.3489 58° Northeast  Level Estimated
08:30AM 59.8897 23.5376 58° Northeast  Level Estimated
08:31AM 59.9481 23.7271 58° Northeast  Level Estimated
08:32AM 60.0061 23.9172 59° Northeast  Level Estimated
08:33AM 60.0639 24.1080 59° Northeast  Level Estimated
08:34AM 60.1214 24.2994 59° Northeast  Level Estimated
08:35AM 60.1839 24.5091 59° Northeast  Level Estimated
08:36AM 60.2460 24.7195 59° Northeast  Level Estimated
08:37AM 60.3077 24.9307 59° Northeast  Level Estimated
08:38AM 60.3172 24.9633 60° Northeast  Level Estimated
08:39AM 60.3172 24.9633 37° Northeast  Level Estimated
08:40AM 60.3172 24.9633 37° Northeast  Level Estimated
08:41AM 60.3172 24.9633 37° Northeast  Level Estimated
08:42AM 60.3172 24.9633 37° Northeast  Level Estimated
08:43AM 60.3172 24.9633 37° Northeast  Level Estimated
08:44AM 60.3172 24.9633 37° Northeast  Level Estimated
08:45AM 60.3172 24.9633 37° Northeast  Level Estimated
08:46AM 60.3172 24.9633 37° Northeast  Level Estimated
08:47AM 60.3172 24.9633 37° Northeast  Level Estimated